La Palma, CA (90623)

1:07 PM PDT on August 22, 2014 (GMT -0700)
Valley View / Cerritos | Change Station
CLOSE
Current Station
Personal Weather Station
Location: Buena Park, CA
Elevation: 55 ft
Nearby Weather Stations
Active Advisory: High Surf Advisory

Elev 55 ft 33.81 °N, 118.03 °W | Updated 16 seconds ago

Clear
Clear
80.3 °F
Feels Like 83 °F
N
3.0
Wind Variable Wind from South
Gusts 8.0 mph

Today
High -- | Low -- °F
--% Chance of Precip.
Yesterday
High -- | Low -- °F
Precip. -- in
6:19 AM 7:30 PM
Waning Crescent, 7% visible
Pressure 29.95 in
Visibility 10.0 miles
Clouds Clear
Heat Index 83 °F
Dew Point 68 °F
Humidity 67%
Rainfall 0.00 in
Snow Depth Not available.
UV 6.3 out of 12
Pollen 5.40 out of 12
Ozone Good
PM2.5 Moderate
Flu Activity Not available.
METAR KFUL 221953Z VRB05KT 10SM CLR 28/17 A2995 RMK AO2 SLP141 T02830172

More Conditions Fewer Conditions

Pressure 29.95 in
Visibility 10.0 miles
Clouds Clear
Heat Index 83 °F
Dew Point 68 °F
Humidity 67%
Rainfall 0.00 in
Snow Depth Not available.
UV 6.3 out of 12
Pollen 5.40 out of 12
Ozone Good
PM2.5 Moderate
Flu Activity Not available.
METAR KFUL 221953Z VRB05KT 10SM CLR 28/17 A2995 RMK AO2 SLP141 T02830172

More Conditions Fewer Conditions

10-Day Weather Forecast

Almanac

Astronomy

Aug. 22, 2014 Rise Set
Actual Time 6:19 AM PDT 7:30 PM PDT
Civil Twilight 5:53 AM PDT 7:56 PM PDT
Nautical Twilight 5:22 AM PDT 8:27 PM PDT
Astronomical Twilight 4:50 AM PDT 8:59 PM PDT
Moon 3:49 AM PDT 5:39 PM PDT
Length of Visible Light 14h 03m
Length of Day
13h 11m
Tomorrow will be 1m 57s shorter.
Waning Crescent, 7% of the Moon is Illuminated
Today
Waning Crescent
Aug 25
New
Sep 2
First Quarter
Sep 8
Full
Sep 15
Last Quarter

Today's Extremes

State Highs State Lows

Community

WunderPhotos

Upload Photos

1,746,239 photos uploaded!

Nearby

Air Quality

  Air Quality AQ Index Pollutant
Yesterday Good
PM10
Yesterday Good
OZONE
Current Moderate
PM2.5
Current Good
OZONE
Saturday Good
PM10
Saturday Good
OZONE
Saturday Good
CO
Saturday Good
NO2

Snow Depth

Station Depth Elevation
Leavitt Meadows 0 in 7200 ft
Summit Meadow 0 in 9122 ft
Monitor Pass 0 in 8350 ft
Echo Peak 0 in 7800 ft
Tahoe City Cross 0 in 6750 ft

Earthquake Activity

City Distance Mag. Time & Date
Big Bear City, California 76 miles 3.7 9:55 PM PDT
2014-08-17
Minimum magnitude displayed is 2.5.

Coastal Water Temperatures

Place Temperature
Santa Monica Pier 71.1 °F
Los Angeles, CA 68.0 °F
La Jolla, CA 69.1 °F

Nearby Weather Stations